createdAt,value
2022-10-23T00:01:39.531Z,51.53
2022-10-23T00:04:11.724Z,42.08
2022-10-23T00:06:40.054Z,54.35
2022-10-23T00:09:10.992Z,47.30
2022-10-23T00:11:39.746Z,51.00
2022-10-23T00:14:09.791Z,48.17
2022-10-23T00:16:38.334Z,42.50
2022-10-23T00:19:07.819Z,44.30
2022-10-23T00:21:36.037Z,44.97
2022-10-23T00:24:04.701Z,49.53
2022-10-23T00:26:32.942Z,45.55
2022-10-23T00:29:01.861Z,45.00
2022-10-23T00:31:31.458Z,43.50
2022-10-23T00:33:59.953Z,46.33
2022-10-23T00:36:28.504Z,43.72
2022-10-23T00:38:57.644Z,46.75
2022-10-23T00:41:28.745Z,53.08
2022-10-23T00:44:07.672Z,46.17
2022-10-23T00:46:38.684Z,46.33
2022-10-23T00:49:08.176Z,47.65
2022-10-23T00:51:41.792Z,53.00
2022-10-23T00:54:23.572Z,64.22
2022-10-23T00:56:55.650Z,54.00
2022-10-23T00:59:24.881Z,54.00
2022-10-23T01:01:55.087Z,48.10
2022-10-23T01:04:24.554Z,49.63
2022-10-23T01:07:00.142Z,42.03
2022-10-23T01:09:33.485Z,48.90
2022-10-23T01:12:13.571Z,51.55
2022-10-23T01:14:51.482Z,48.92
2022-10-23T01:17:30.759Z,40.47
2022-10-23T01:20:15.110Z,39.20
2022-10-23T01:23:00.224Z,44.05
2022-10-23T01:25:45.211Z,43.78
2022-10-23T01:28:23.123Z,43.13
2022-10-23T01:30:51.920Z,38.78
2022-10-23T01:33:26.784Z,35.60
2022-10-23T01:36:03.367Z,41.47
2022-10-23T01:38:40.351Z,47.08
2022-10-23T01:41:21.819Z,62.65
2022-10-23T01:43:55.769Z,40.90
2022-10-23T01:46:26.302Z,40.88
2022-10-23T01:48:57.668Z,40.33
2022-10-23T01:51:30.228Z,42.95
2022-10-23T01:54:08.394Z,45.95
2022-10-23T01:56:42.093Z,40.88
2022-10-23T01:59:15.895Z,41.22
2022-10-23T02:01:48.939Z,41.13
2022-10-23T02:04:23.343Z,38.22
2022-10-23T02:06:51.967Z,49.40
2022-10-23T02:09:20.455Z,43.20
2022-10-23T02:11:55.916Z,36.10
2022-10-23T02:14:37.240Z,35.63
2022-10-23T02:17:16.550Z,34.47
2022-10-23T02:19:49.859Z,46.78
2022-10-23T02:22:22.657Z,32.38
2022-10-23T02:24:54.350Z,42.92
2022-10-23T02:27:27.314Z,28.45
2022-10-23T02:30:04.540Z,34.63
2022-10-23T02:32:35.230Z,34.50
2022-10-23T02:35:03.896Z,31.92
2022-10-23T02:37:32.360Z,41.15
2022-10-23T02:40:03.938Z,30.48
2022-10-23T02:42:45.843Z,37.35
2022-10-23T02:45:23.312Z,34.55
2022-10-23T02:47:58.979Z,31.48
2022-10-23T02:50:32.535Z,27.58
2022-10-23T02:53:09.517Z,28.00
2022-10-23T02:55:52.219Z,31.77
2022-10-23T02:58:25.395Z,41.95
2022-10-23T03:01:04.281Z,31.60
2022-10-23T03:03:37.187Z,33.92
2022-10-23T03:06:07.862Z,39.35
2022-10-23T03:08:45.223Z,33.70
2022-10-23T03:11:13.433Z,35.72
2022-10-23T03:13:41.810Z,34.97
2022-10-23T03:16:11.424Z,31.48
2022-10-23T03:18:39.798Z,40.67
2022-10-23T03:21:08.975Z,35.72
2022-10-23T03:23:37.406Z,33.42
2022-10-23T03:26:06.038Z,33.47
2022-10-23T03:28:39.707Z,43.15
2022-10-23T03:31:07.940Z,28.35
2022-10-23T03:33:37.675Z,42.80
2022-10-23T03:36:11.484Z,41.53
2022-10-23T03:38:39.949Z,37.85
2022-10-23T03:41:08.182Z,30.42
2022-10-23T03:43:36.774Z,34.10
2022-10-23T03:46:09.214Z,32.38
2022-10-23T03:48:39.226Z,35.13
2022-10-23T03:51:07.812Z,35.50
2022-10-23T03:53:36.475Z,32.63
2022-10-23T03:56:05.689Z,36.28
2022-10-23T03:58:35.321Z,28.10
2022-10-23T04:01:04.008Z,34.45
2022-10-23T04:03:32.689Z,28.63
2022-10-23T04:06:02.379Z,35.15
2022-10-23T04:08:30.953Z,32.78
2022-10-23T04:10:59.615Z,33.47
2022-10-23T04:13:35.905Z,31.60
2022-10-23T04:16:04.224Z,26.15
2022-10-23T04:18:32.655Z,33.40
2022-10-23T04:21:02.241Z,36.72
2022-10-23T04:23:30.745Z,39.10
2022-10-23T04:25:59.640Z,39.03
2022-10-23T04:28:28.617Z,33.28
2022-10-23T04:30:56.857Z,44.58
2022-10-23T04:33:26.205Z,39.38
2022-10-23T04:35:54.467Z,33.97
2022-10-23T04:38:24.206Z,31.60
2022-10-23T04:40:52.524Z,36.70
2022-10-23T04:43:24.656Z,36.75
2022-10-23T04:45:53.277Z,47.58
2022-10-23T04:48:25.545Z,33.45
2022-10-23T04:51:15.438Z,41.45
2022-10-23T04:54:03.705Z,40.45
2022-10-23T04:56:52.243Z,39.53
2022-10-23T04:59:22.717Z,36.33
2022-10-23T05:01:50.957Z,46.05
2022-10-23T05:04:20.145Z,38.83
2022-10-23T05:07:08.730Z,42.15
2022-10-23T05:10:11.193Z,43.35
2022-10-23T05:12:46.305Z,36.30
2022-10-23T05:15:14.834Z,39.08
2022-10-23T05:17:47.694Z,41.40
2022-10-23T05:20:20.834Z,43.38
2022-10-23T05:22:51.287Z,42.40
2022-10-23T05:25:24.038Z,41.55
2022-10-23T05:28:00.107Z,38.17
2022-10-23T05:30:28.745Z,47.80
2022-10-23T05:32:57.693Z,52.92
2022-10-23T05:35:29.991Z,29.92
2022-10-23T05:38:00.389Z,33.38
2022-10-23T05:40:30.702Z,45.63
2022-10-23T05:43:03.804Z,31.00
2022-10-23T05:45:50.573Z,47.92
2022-10-23T05:48:41.303Z,30.05
2022-10-23T05:51:39.115Z,25.10
2022-10-23T05:54:27.651Z,30.92
2022-10-23T05:57:36.399Z,39.75
2022-10-23T06:00:10.467Z,33.03
2022-10-23T06:02:50.726Z,32.17
2022-10-23T06:05:34.271Z,33.78
2022-10-23T06:08:17.680Z,39.58
2022-10-23T06:10:46.209Z,33.13
2022-10-23T06:13:15.979Z,30.00
2022-10-23T06:15:44.483Z,36.13
2022-10-23T06:18:24.303Z,31.92
2022-10-23T06:21:05.658Z,36.28
2022-10-23T06:23:34.421Z,32.03
2022-10-23T06:26:11.246Z,36.38
2022-10-23T06:28:52.252Z,37.58
2022-10-23T06:31:23.607Z,30.52
2022-10-23T06:33:52.734Z,43.17
2022-10-23T06:36:21.026Z,34.47
2022-10-23T06:38:50.424Z,31.67
2022-10-23T06:41:21.051Z,41.22
2022-10-23T06:43:56.482Z,35.40
2022-10-23T06:46:30.007Z,38.03
2022-10-23T06:49:04.758Z,42.65
2022-10-23T06:51:37.493Z,39.03
2022-10-23T06:54:07.331Z,42.97
2022-10-23T06:56:55.444Z,44.10
2022-10-23T06:59:32.884Z,40.55
2022-10-23T07:02:01.853Z,42.30
2022-10-23T07:04:30.981Z,43.35
2022-10-23T07:07:00.605Z,37.80
2022-10-23T07:09:37.270Z,60.00
2022-10-23T07:12:17.529Z,38.47
2022-10-23T07:14:53.235Z,34.22
2022-10-23T07:17:22.475Z,40.25
2022-10-23T07:19:51.143Z,44.40
2022-10-23T07:22:19.332Z,42.60
2022-10-23T07:25:10.795Z,49.78
2022-10-23T07:27:40.930Z,36.97
2022-10-23T07:30:14.230Z,34.78
2022-10-23T07:32:48.515Z,38.78
2022-10-23T07:35:19.634Z,35.58
2022-10-23T07:38:04.847Z,42.33
2022-10-23T07:40:37.947Z,45.85
2022-10-23T07:43:08.253Z,39.10
2022-10-23T07:45:38.042Z,39.20
2022-10-23T07:48:17.415Z,36.65
2022-10-23T07:51:01.708Z,33.92
2022-10-23T07:53:31.328Z,35.70
2022-10-23T07:56:13.736Z,34.72
2022-10-23T07:59:07.827Z,36.58
2022-10-23T08:01:40.097Z,34.63
2022-10-23T08:04:08.590Z,29.92
2022-10-23T08:06:42.171Z,38.38
2022-10-23T08:09:11.058Z,33.53
2022-10-23T08:11:42.335Z,33.22
2022-10-23T08:14:12.412Z,35.72
2022-10-23T08:16:44.011Z,36.00
2022-10-23T08:19:18.612Z,38.95
2022-10-23T08:21:48.655Z,38.28
2022-10-23T08:24:17.957Z,29.70
2022-10-23T08:26:50.254Z,35.50
2022-10-23T08:29:20.996Z,32.20
2022-10-23T08:31:55.910Z,32.90
2022-10-23T08:34:31.567Z,31.27
2022-10-23T08:37:02.379Z,34.80
2022-10-23T08:39:30.684Z,28.15
2022-10-23T08:42:22.574Z,31.80
2022-10-23T08:45:01.175Z,30.90
2022-10-23T08:47:40.014Z,34.08
2022-10-23T08:50:37.900Z,29.38
2022-10-23T08:53:14.983Z,28.30
2022-10-23T08:55:46.475Z,38.10
2022-10-23T08:58:19.719Z,41.47
2022-10-23T09:00:50.154Z,47.15
2022-10-23T09:03:20.076Z,38.60
2022-10-23T09:06:00.882Z,23.75
2022-10-23T09:08:40.898Z,36.90
2022-10-23T09:11:13.907Z,30.63
2022-10-23T09:14:15.207Z,27.73
2022-10-23T09:16:54.344Z,34.08
2022-10-23T09:19:28.045Z,32.92
2022-10-23T09:21:57.434Z,49.70
2022-10-23T09:24:31.581Z,36.28
2022-10-23T09:27:01.515Z,41.33
2022-10-23T09:29:33.130Z,36.67
2022-10-23T09:32:02.978Z,38.47
2022-10-23T09:34:34.330Z,38.00
2022-10-23T09:37:03.904Z,39.70
2022-10-23T09:39:33.732Z,34.85
2022-10-23T09:42:03.414Z,32.38
2022-10-23T09:44:34.162Z,30.73
2022-10-23T09:47:12.083Z,36.70
2022-10-23T09:49:48.680Z,48.08
2022-10-23T09:52:26.714Z,29.63
2022-10-23T09:54:58.330Z,32.75
2022-10-23T09:57:31.870Z,38.22
2022-10-23T10:00:02.959Z,29.75
2022-10-23T10:02:40.630Z,31.75
2022-10-23T10:05:54.355Z,38.08
2022-10-23T10:08:30.888Z,33.97
2022-10-23T10:11:02.675Z,34.53
2022-10-23T10:13:54.068Z,28.08
2022-10-23T10:16:32.511Z,24.65
2022-10-23T10:19:07.521Z,43.00
2022-10-23T10:21:44.063Z,24.88
2022-10-23T10:24:19.869Z,31.27
2022-10-23T10:26:59.261Z,25.35
2022-10-23T10:29:45.748Z,27.52
2022-10-23T10:32:32.041Z,31.77
2022-10-23T10:35:16.030Z,43.45
2022-10-23T10:38:00.561Z,24.75
2022-10-23T10:40:33.780Z,27.27
2022-10-23T10:43:19.000Z,39.70
2022-10-23T10:45:49.044Z,35.72
2022-10-23T10:48:41.866Z,30.45
2022-10-23T10:51:57.463Z,40.05
2022-10-23T10:54:40.311Z,27.10
2022-10-23T10:57:21.771Z,24.38
2022-10-23T10:59:54.208Z,26.67
2022-10-23T11:02:28.305Z,37.90
2022-10-23T11:05:06.987Z,35.95
2022-10-23T11:07:40.127Z,31.20
2022-10-23T11:10:18.848Z,48.40
2022-10-23T11:12:48.925Z,37.72
2022-10-23T11:15:21.827Z,33.60
2022-10-23T11:17:53.471Z,28.33
2022-10-23T11:20:45.978Z,28.05
2022-10-23T11:23:41.453Z,30.90
2022-10-23T11:26:25.721Z,23.52
2022-10-23T11:29:10.451Z,26.73
2022-10-23T11:31:46.304Z,35.85
2022-10-23T11:34:40.316Z,26.23
2022-10-23T11:37:09.154Z,33.95
2022-10-23T11:39:40.239Z,32.45
2022-10-23T11:42:32.271Z,29.77
2022-10-23T11:45:00.894Z,36.33
2022-10-23T11:47:38.936Z,28.17
2022-10-23T11:50:28.134Z,35.90
2022-10-23T11:53:20.906Z,33.83
2022-10-23T11:56:06.666Z,33.03
2022-10-23T11:58:48.828Z,47.42
2022-10-23T12:01:26.007Z,41.72
2022-10-23T12:03:59.941Z,38.67
2022-10-23T12:06:33.090Z,30.52
2022-10-23T12:09:08.938Z,29.60
2022-10-23T12:11:46.093Z,32.47
2022-10-23T12:14:30.040Z,33.42
2022-10-23T12:16:58.757Z,33.95
2022-10-23T12:19:28.611Z,26.05
2022-10-23T12:22:00.699Z,27.70
2022-10-23T12:24:48.343Z,21.00
2022-10-23T12:27:26.135Z,39.10
2022-10-23T12:30:15.154Z,38.92
2022-10-23T12:33:04.467Z,25.55
2022-10-23T12:36:08.207Z,28.50
2022-10-23T12:38:44.645Z,22.85
2022-10-23T12:41:16.176Z,19.48
2022-10-23T12:43:54.187Z,25.48
2022-10-23T12:46:36.590Z,29.83
2022-10-23T12:49:15.924Z,26.95
2022-10-23T12:51:45.260Z,24.70
2022-10-23T12:54:18.622Z,23.48
2022-10-23T12:56:48.499Z,23.67
2022-10-23T12:59:19.536Z,27.70
2022-10-23T13:01:52.771Z,25.48
2022-10-23T13:04:30.401Z,23.63
2022-10-23T13:07:01.647Z,20.90
2022-10-23T13:09:33.578Z,23.08
2022-10-23T13:12:22.494Z,21.67
2022-10-23T13:14:59.645Z,22.30
2022-10-23T13:17:42.269Z,23.70
2022-10-23T13:20:20.204Z,27.13
2022-10-23T13:22:51.083Z,23.23
2022-10-23T13:25:25.011Z,32.58
2022-10-23T13:28:13.150Z,30.48
2022-10-23T13:30:46.103Z,23.48
2022-10-23T13:33:24.432Z,19.70
2022-10-23T13:35:59.468Z,21.13
2022-10-23T13:38:33.050Z,16.95
2022-10-23T13:41:02.557Z,18.70
2022-10-23T13:43:32.436Z,18.92
2022-10-23T13:46:02.727Z,21.40
2022-10-23T13:48:34.619Z,22.48
2022-10-23T13:51:13.073Z,24.67
2022-10-23T13:53:41.488Z,31.35
2022-10-23T13:56:12.664Z,22.83
2022-10-23T13:58:41.397Z,20.17
2022-10-23T14:01:17.404Z,18.42
2022-10-23T14:03:47.654Z,17.65
2022-10-23T14:06:15.960Z,21.05
2022-10-23T14:08:44.970Z,20.10
2022-10-23T14:13:48.752Z,19.35
2022-10-23T14:16:19.389Z,23.17
2022-10-23T14:18:49.467Z,21.88
2022-10-23T14:21:20.956Z,22.30
2022-10-23T14:23:50.260Z,26.88
2022-10-23T14:26:20.801Z,27.77
2022-10-23T14:28:49.676Z,27.45
2022-10-23T14:31:18.828Z,22.67
2022-10-23T14:33:52.270Z,26.23
2022-10-23T14:36:20.532Z,23.38
2022-10-23T14:38:50.523Z,29.48
2022-10-23T14:41:21.845Z,23.67
2022-10-23T14:43:50.464Z,24.98
2022-10-23T14:46:21.131Z,22.00
2022-10-23T14:48:54.896Z,25.30
2022-10-23T14:51:27.488Z,23.50
2022-10-23T14:53:59.499Z,20.20
2022-10-23T14:56:27.848Z,17.85
2022-10-23T14:59:02.552Z,28.30
2022-10-23T15:01:31.996Z,25.35
2022-10-23T15:04:03.066Z,24.92
2022-10-23T15:06:31.498Z,17.85
2022-10-23T15:09:00.031Z,19.98
2022-10-23T15:11:28.896Z,24.23
2022-10-23T15:13:59.905Z,19.50
2022-10-23T15:16:28.839Z,31.35
2022-10-23T15:18:57.374Z,26.42
2022-10-23T15:21:26.953Z,21.95
2022-10-23T15:23:55.283Z,24.13
2022-10-23T15:26:25.431Z,27.52
2022-10-23T15:28:54.917Z,27.13
2022-10-23T15:31:41.890Z,33.10
2022-10-23T15:34:12.815Z,24.00
2022-10-23T15:36:42.616Z,22.77
2022-10-23T15:39:12.511Z,30.02
2022-10-23T15:41:42.337Z,29.83
2022-10-23T15:44:14.992Z,23.02
2022-10-23T15:46:43.822Z,26.88
2022-10-23T15:49:12.904Z,25.08
2022-10-23T15:51:44.013Z,24.08
2022-10-23T15:54:18.378Z,28.15
2022-10-23T15:56:47.549Z,28.00
2022-10-23T15:59:16.412Z,24.65
2022-10-23T16:01:44.903Z,30.02
2022-10-23T16:04:13.946Z,28.45
2022-10-23T16:06:43.935Z,29.98
2022-10-23T16:09:13.148Z,30.23
2022-10-23T16:11:42.981Z,25.52
2022-10-23T16:14:14.639Z,24.90
2022-10-23T16:16:43.186Z,30.05
2022-10-23T16:19:12.101Z,24.45
2022-10-23T16:21:40.615Z,26.98
2022-10-23T16:24:11.247Z,25.15
2022-10-23T16:26:39.779Z,17.45
2022-10-23T16:29:09.586Z,26.80
2022-10-23T16:31:38.221Z,26.15
2022-10-23T16:34:07.808Z,25.95
2022-10-23T16:36:39.001Z,22.52
2022-10-23T16:39:44.472Z,24.63
2022-10-23T16:42:32.895Z,23.10
2022-10-23T16:45:19.978Z,27.95
2022-10-23T16:47:48.229Z,19.95
2022-10-23T16:50:16.867Z,22.45
2022-10-23T16:52:45.545Z,27.30
2022-10-23T16:55:15.612Z,23.17
2022-10-23T16:57:43.893Z,23.35
2022-10-23T17:00:13.457Z,33.00
2022-10-23T17:02:42.391Z,18.85
2022-10-23T17:05:11.035Z,23.45
2022-10-23T17:07:39.228Z,22.80
2022-10-23T17:10:08.807Z,20.77
2022-10-23T17:12:38.628Z,39.55
2022-10-23T17:15:08.323Z,47.97
2022-10-23T17:17:36.573Z,40.50
2022-10-23T17:20:05.657Z,37.78
2022-10-23T17:22:35.489Z,33.38
2022-10-23T17:25:04.418Z,25.17
2022-10-23T17:27:32.723Z,25.35
2022-10-23T17:30:02.791Z,15.50
2022-10-23T17:32:36.616Z,31.55
2022-10-23T17:35:07.198Z,20.77
2022-10-23T17:37:35.494Z,39.70
2022-10-23T17:40:05.773Z,29.95
2022-10-23T17:42:34.250Z,27.02
2022-10-23T17:45:04.536Z,36.40
2022-10-23T17:47:32.925Z,50.15
2022-10-23T17:50:01.454Z,33.60
2022-10-23T17:52:30.876Z,28.65
2022-10-23T17:54:59.358Z,23.17
2022-10-23T17:57:27.587Z,26.20
2022-10-23T17:59:56.072Z,22.13
2022-10-23T18:02:25.983Z,23.45
2022-10-23T18:04:54.533Z,25.48
2022-10-23T18:07:24.273Z,25.00
2022-10-23T18:09:52.777Z,29.08
2022-10-23T18:12:21.116Z,33.17
2022-10-23T18:14:49.641Z,22.35
2022-10-23T18:17:18.277Z,28.20
2022-10-23T18:19:51.229Z,24.02
2022-10-23T18:24:53.615Z,24.02
2022-10-23T18:27:21.976Z,23.63
2022-10-23T18:29:51.336Z,22.20
2022-10-23T18:32:21.210Z,27.77
2022-10-23T18:34:52.259Z,21.58
2022-10-23T18:37:21.052Z,24.95
2022-10-23T18:39:49.977Z,34.80
2022-10-23T18:42:18.473Z,28.45
2022-10-23T18:44:50.044Z,26.00
2022-10-23T18:47:19.005Z,25.83
2022-10-23T18:49:47.998Z,24.38
2022-10-23T18:52:18.434Z,24.17
2022-10-23T18:54:47.384Z,25.13
2022-10-23T18:57:15.945Z,20.88
2022-10-23T18:59:44.551Z,28.88
2022-10-23T19:02:13.623Z,39.28
2022-10-23T19:04:42.291Z,33.17
2022-10-23T19:07:11.163Z,31.48
2022-10-23T19:09:45.750Z,34.70
2022-10-23T19:14:48.289Z,31.35
2022-10-23T19:17:19.867Z,31.08
2022-10-23T19:19:53.012Z,26.50
2022-10-23T19:22:22.114Z,27.20
2022-10-23T19:24:58.466Z,28.05
2022-10-23T19:27:27.996Z,29.40
2022-10-23T19:29:57.739Z,39.92
2022-10-23T19:32:26.416Z,33.78
2022-10-23T19:34:56.413Z,30.70
2022-10-23T19:37:26.093Z,34.67
2022-10-23T19:39:56.586Z,27.83
2022-10-23T19:42:27.972Z,31.17
2022-10-23T19:44:57.139Z,32.35
2022-10-23T19:47:26.176Z,28.48
2022-10-23T19:49:55.555Z,26.75
2022-10-23T19:52:24.886Z,33.85
2022-10-23T19:54:54.402Z,28.85
2022-10-23T19:57:26.008Z,32.80
2022-10-23T19:59:55.432Z,35.47
2022-10-23T20:02:24.550Z,32.92
2022-10-23T20:04:54.630Z,27.90
2022-10-23T20:07:23.779Z,36.22
2022-10-23T20:09:53.039Z,29.52
2022-10-23T20:12:21.453Z,34.22
2022-10-23T20:14:53.837Z,32.10
2022-10-23T20:17:22.466Z,26.60
2022-10-23T20:19:53.137Z,25.27
2022-10-23T20:22:21.452Z,30.25
2022-10-23T20:24:50.252Z,29.80
2022-10-23T20:27:18.694Z,26.17
2022-10-23T20:29:48.673Z,29.88
2022-10-23T20:32:18.736Z,28.80
2022-10-23T20:34:47.149Z,28.33
2022-10-23T20:37:15.558Z,37.08
2022-10-23T20:39:44.400Z,40.00
2022-10-23T20:42:12.646Z,35.50
2022-10-23T20:44:41.135Z,33.25
2022-10-23T20:47:09.649Z,36.63
2022-10-23T20:49:39.469Z,31.23
2022-10-23T20:52:07.676Z,36.63
2022-10-23T20:54:38.038Z,33.22
2022-10-23T20:57:06.280Z,34.20
2022-10-23T20:59:35.432Z,42.38
2022-10-23T21:02:04.039Z,34.05
2022-10-23T21:04:32.713Z,32.10
2022-10-23T21:07:09.825Z,32.05
2022-10-23T21:09:39.360Z,38.08
2022-10-23T21:12:08.280Z,37.17
2022-10-23T21:14:37.580Z,33.92
2022-10-23T21:17:06.052Z,38.63
2022-10-23T21:19:34.515Z,30.88
2022-10-23T21:22:04.280Z,38.10
2022-10-23T21:24:33.048Z,32.63
2022-10-23T21:27:01.482Z,34.92
2022-10-23T21:29:30.037Z,37.50
2022-10-23T21:31:59.682Z,34.92
2022-10-23T21:34:29.183Z,32.10
2022-10-23T21:37:12.554Z,35.15
2022-10-23T21:39:44.965Z,29.30
2022-10-23T21:42:14.480Z,37.17
2022-10-23T21:44:43.017Z,35.08
2022-10-23T21:47:11.365Z,35.33
2022-10-23T21:49:39.947Z,28.25
2022-10-23T21:52:09.080Z,43.28
2022-10-23T21:54:37.926Z,37.30
2022-10-23T21:57:15.011Z,31.25
2022-10-23T21:59:43.934Z,43.20
2022-10-23T22:02:12.521Z,37.25
2022-10-23T22:04:41.516Z,38.13
2022-10-23T22:07:10.870Z,33.08
2022-10-23T22:09:39.573Z,33.80
2022-10-23T22:12:11.865Z,35.80
2022-10-23T22:14:40.710Z,41.80
2022-10-23T22:17:09.132Z,39.95
2022-10-23T22:19:37.596Z,34.67
2022-10-23T22:22:05.930Z,30.52
2022-10-23T22:24:34.441Z,36.17
2022-10-23T22:27:02.828Z,33.30
2022-10-23T22:29:32.815Z,38.92
2022-10-23T22:32:01.184Z,33.67
2022-10-23T22:37:19.656Z,39.17
2022-10-23T22:39:51.386Z,40.25
2022-10-23T22:42:19.733Z,39.03
2022-10-23T22:44:49.531Z,34.67
2022-10-23T22:47:17.783Z,35.58
2022-10-23T22:49:46.196Z,36.45
2022-10-23T22:52:14.785Z,35.28
2022-10-23T22:54:43.316Z,41.38
2022-10-23T22:57:11.548Z,40.55
2022-10-23T22:59:40.204Z,35.15
2022-10-23T23:02:24.690Z,37.30
2022-10-23T23:04:53.110Z,38.30
2022-10-23T23:07:21.283Z,36.60
2022-10-23T23:09:49.782Z,33.17
2022-10-23T23:12:17.999Z,38.17
2022-10-23T23:14:46.550Z,42.90
2022-10-23T23:17:16.029Z,34.95
2022-10-23T23:19:44.414Z,42.00
2022-10-23T23:22:12.720Z,37.83
2022-10-23T23:24:41.167Z,38.75
2022-10-23T23:27:09.537Z,32.83
2022-10-23T23:29:37.905Z,32.38
2022-10-23T23:32:07.042Z,33.08
2022-10-23T23:34:36.912Z,40.50
2022-10-23T23:37:05.086Z,38.85
2022-10-23T23:39:33.720Z,38.65
2022-10-23T23:42:02.472Z,46.13
2022-10-23T23:44:30.883Z,40.25
2022-10-23T23:46:59.362Z,41.35
2022-10-23T23:49:28.077Z,44.78
2022-10-23T23:51:57.621Z,41.60
2022-10-23T23:54:26.355Z,40.78
2022-10-23T23:56:59.032Z,39.65
2022-10-23T23:59:28.160Z,56.55
